sensor_id;sensor_type;location;lat;lon;timestamp;pressure;altitude;pressure_sealevel;temperature;humidity
31337;BME280;22846;42.654;23.314;2023-07-16T00:02:24;94760.47;;;30.00;49.27
31337;BME280;22846;42.654;23.314;2023-07-16T00:04:49;94752.22;;;30.00;49.52
31337;BME280;22846;42.654;23.314;2023-07-16T00:07:14;94751.44;;;29.99;49.26
31337;BME280;22846;42.654;23.314;2023-07-16T00:09:40;94749.47;;;30.00;49.17
31337;BME280;22846;42.654;23.314;2023-07-16T00:12:05;94746.41;;;29.98;49.01
31337;BME280;22846;42.654;23.314;2023-07-16T00:14:31;94754.97;;;30.00;49.06
31337;BME280;22846;42.654;23.314;2023-07-16T00:16:57;94743.03;;;29.94;49.22
31337;BME280;22846;42.654;23.314;2023-07-16T00:19:22;94749.47;;;30.00;49.59
31337;BME280;22846;42.654;23.314;2023-07-16T00:21:48;94748.69;;;29.99;49.34
31337;BME280;22846;42.654;23.314;2023-07-16T00:24:13;94751.44;;;29.99;49.55
31337;BME280;22846;42.654;23.314;2023-07-16T00:26:39;94752.22;;;30.00;49.59
31337;BME280;22846;42.654;23.314;2023-07-16T00:29:04;94754.19;;;29.99;49.57
31337;BME280;22846;42.654;23.314;2023-07-16T00:31:30;94754.19;;;29.99;49.54
31337;BME280;22846;42.654;23.314;2023-07-16T00:33:55;94750.69;;;29.99;49.08
31337;BME280;22846;42.654;23.314;2023-07-16T00:36:21;94751.44;;;29.99;49.08
31337;BME280;22846;42.654;23.314;2023-07-16T00:38:46;94754.19;;;29.99;49.52
31337;BME280;22846;42.654;23.314;2023-07-16T00:41:13;94747.94;;;29.99;49.26
31337;BME280;22846;42.654;23.314;2023-07-16T00:43:39;94745.91;;;29.99;49.56
31337;BME280;22846;42.654;23.314;2023-07-16T00:46:05;94745.16;;;29.99;49.12
31337;BME280;22846;42.654;23.314;2023-07-16T00:48:30;94748.69;;;29.99;49.18
31337;BME280;22846;42.654;23.314;2023-07-16T00:50:56;94745.91;;;29.99;49.23
31337;BME280;22846;42.654;23.314;2023-07-16T00:53:22;94747.94;;;29.99;49.70
31337;BME280;22846;42.654;23.314;2023-07-16T00:55:48;94751.91;;;29.98;49.31
31337;BME280;22846;42.654;23.314;2023-07-16T00:58:13;94745.91;;;29.99;49.63
31337;BME280;22846;42.654;23.314;2023-07-16T01:00:39;94747.94;;;29.99;49.40
31337;BME280;22846;42.654;23.314;2023-07-16T01:03:12;94757.44;;;29.98;49.61
31337;BME280;22846;42.654;23.314;2023-07-16T01:05:47;94752.66;;;29.98;49.72
31337;BME280;22846;42.654;23.314;2023-07-16T01:08:18;94754.19;;;29.99;49.18
31337;BME280;22846;42.654;23.314;2023-07-16T01:10:45;94751.44;;;29.99;49.54
31337;BME280;22846;42.654;23.314;2023-07-16T01:13:11;94744.88;;;29.97;49.68
31337;BME280;22846;42.654;23.314;2023-07-16T01:15:36;94747.16;;;29.98;49.21
31337;BME280;22846;42.654;23.314;2023-07-16T01:18:03;94753.44;;;29.99;49.45
31337;BME280;22846;42.654;23.314;2023-07-16T01:20:29;94755.41;;;29.98;49.80
31337;BME280;22846;42.654;23.314;2023-07-16T01:30:52;94751.91;;;29.98;49.65
31337;BME280;22846;42.654;23.314;2023-07-16T01:33:20;94733.41;;;29.89;49.44
31337;BME280;22846;42.654;23.314;2023-07-16T01:35:47;94745.66;;;29.97;49.25
31337;BME280;22846;42.654;23.314;2023-07-16T01:38:12;94750.38;;;29.97;49.57
31337;BME280;22846;42.654;23.314;2023-07-16T01:40:38;94747.16;;;29.98;49.75
31337;BME280;22846;42.654;23.314;2023-07-16T01:43:04;94740.13;;;29.97;49.56
31337;BME280;22846;42.654;23.314;2023-07-16T01:45:29;94754.66;;;29.98;49.56
31337;BME280;22846;42.654;23.314;2023-07-16T01:47:59;94754.66;;;29.98;49.46
31337;BME280;22846;42.654;23.314;2023-07-16T01:50:26;94754.66;;;29.98;49.58
31337;BME280;22846;42.654;23.314;2023-07-16T01:52:51;94751.16;;;29.97;49.44
31337;BME280;22846;42.654;23.314;2023-07-16T01:55:16;94753.91;;;29.97;49.65
31337;BME280;22846;42.654;23.314;2023-07-16T01:57:42;94749.63;;;29.96;49.47
31337;BME280;22846;42.654;23.314;2023-07-16T02:00:07;94764.16;;;29.97;49.97
31337;BME280;22846;42.654;23.314;2023-07-16T02:02:33;94758.66;;;29.97;49.88
31337;BME280;22846;42.654;23.314;2023-07-16T02:04:59;94757.91;;;29.96;49.75
31337;BME280;22846;42.654;23.314;2023-07-16T02:07:24;94741.84;;;29.86;49.50
31337;BME280;22846;42.654;23.314;2023-07-16T02:09:50;94756.69;;;29.97;49.40
31337;BME280;22846;42.654;23.314;2023-07-16T02:12:15;94750.38;;;29.97;49.33
31337;BME280;22846;42.654;23.314;2023-07-16T02:14:40;94764.16;;;29.97;49.35
31337;BME280;22846;42.654;23.314;2023-07-16T02:17:06;94756.69;;;29.97;49.62
31337;BME280;22846;42.654;23.314;2023-07-16T02:19:31;94759.44;;;29.97;49.92
31337;BME280;22846;42.654;23.314;2023-07-16T02:21:57;94753.13;;;29.97;49.92
31337;BME280;22846;42.654;23.314;2023-07-16T02:24:22;94755.91;;;29.97;49.77
31337;BME280;22846;42.654;23.314;2023-07-16T02:26:48;94757.13;;;29.96;49.82
31337;BME280;22846;42.654;23.314;2023-07-16T02:29:13;94755.91;;;29.97;49.82
31337;BME280;22846;42.654;23.314;2023-07-16T02:31:38;94737.69;;;29.90;49.53
31337;BME280;22846;42.654;23.314;2023-07-16T02:34:04;94756.69;;;29.97;49.54
31337;BME280;22846;42.654;23.314;2023-07-16T02:36:29;94759.88;;;29.96;49.49
31337;BME280;22846;42.654;23.314;2023-07-16T02:38:54;94766.91;;;29.97;50.02
31337;BME280;22846;42.654;23.314;2023-07-16T02:41:20;94765.69;;;29.98;49.54
31337;BME280;22846;42.654;23.314;2023-07-16T02:43:46;94761.13;;;29.95;49.83
31337;BME280;22846;42.654;23.314;2023-07-16T02:46:11;94760.66;;;29.96;49.96
31337;BME280;22846;42.654;23.314;2023-07-16T02:48:37;94766.19;;;29.96;49.67
31337;BME280;22846;42.654;23.314;2023-07-16T02:51:02;94765.41;;;29.96;49.94
31337;BME280;22846;42.654;23.314;2023-07-16T02:53:28;94766.91;;;29.97;49.51
31337;BME280;22846;42.654;23.314;2023-07-16T02:55:53;94766.19;;;29.96;49.50
31337;BME280;22846;42.654;23.314;2023-07-16T02:58:19;94768.16;;;29.96;49.51
31337;BME280;22846;42.654;23.314;2023-07-16T03:00:44;94758.66;;;29.97;49.89
31337;BME280;22846;42.654;23.314;2023-07-16T03:03:09;94770.91;;;29.96;49.69
31337;BME280;22846;42.654;23.314;2023-07-16T03:05:35;94768.16;;;29.96;49.52
31337;BME280;22846;42.654;23.314;2023-07-16T03:08:00;94775.19;;;29.97;49.94
31337;BME280;22846;42.654;23.314;2023-07-16T03:10:26;94773.22;;;29.97;49.95
31337;BME280;22846;42.654;23.314;2023-07-16T03:12:54;94769.69;;;29.97;49.53
31337;BME280;22846;42.654;23.314;2023-07-16T03:15:19;94765.41;;;29.96;49.97
31337;BME280;22846;42.654;23.314;2023-07-16T03:17:44;94768.16;;;29.96;50.00
31337;BME280;22846;42.654;23.314;2023-07-16T03:20:10;94772.44;;;29.97;49.74
31337;BME280;22846;42.654;23.314;2023-07-16T03:22:36;94777.19;;;29.96;49.95
31337;BME280;22846;42.654;23.314;2023-07-16T03:25:01;94781.47;;;29.97;49.90
31337;BME280;22846;42.654;23.314;2023-07-16T03:27:28;94766.94;;;29.88;50.03
31337;BME280;22846;42.654;23.314;2023-07-16T03:29:53;94777.19;;;29.96;49.56
31337;BME280;22846;42.654;23.314;2023-07-16T03:32:19;94779.19;;;29.96;50.06
31337;BME280;22846;42.654;23.314;2023-07-16T03:34:44;94786.22;;;29.97;49.48
31337;BME280;22846;42.654;23.314;2023-07-16T03:37:10;94785.47;;;29.96;49.76
31337;BME280;22846;42.654;23.314;2023-07-16T03:39:35;94785.91;;;29.95;50.08
31337;BME280;22846;42.654;23.314;2023-07-16T03:42:00;94790.97;;;29.96;50.07
31337;BME280;22846;42.654;23.314;2023-07-16T03:44:26;94792.97;;;29.96;49.60
31337;BME280;22846;42.654;23.314;2023-07-16T03:46:51;94792.97;;;29.96;49.97
31337;BME280;22846;42.654;23.314;2023-07-16T03:49:17;94797.25;;;29.97;49.96
31337;BME280;22846;42.654;23.314;2023-07-16T03:51:42;94786.22;;;29.97;49.78
31337;BME280;22846;42.654;23.314;2023-07-16T03:54:07;94792.50;;;29.97;49.98
31337;BME280;22846;42.654;23.314;2023-07-16T03:56:33;94800.78;;;29.97;49.61
31337;BME280;22846;42.654;23.314;2023-07-16T03:58:58;94800.00;;;29.97;49.43
31337;BME280;22846;42.654;23.314;2023-07-16T04:01:24;94793.25;;;29.98;50.03
31337;BME280;22846;42.654;23.314;2023-07-16T04:03:49;94802.75;;;29.97;49.93
31337;BME280;22846;42.654;23.314;2023-07-16T04:06:14;94796.00;;;29.98;49.59
31337;BME280;22846;42.654;23.314;2023-07-16T04:08:40;94797.53;;;29.99;49.95
31337;BME280;22846;42.654;23.314;2023-07-16T04:11:05;94796.00;;;29.98;49.71
31337;BME280;22846;42.654;23.314;2023-07-16T04:13:31;94801.03;;;29.99;50.05
31337;BME280;22846;42.654;23.314;2023-07-16T04:15:57;94799.81;;;30.00;49.61
31337;BME280;22846;42.654;23.314;2023-07-16T04:18:23;94803.34;;;30.01;50.09
31337;BME280;22846;42.654;23.314;2023-07-16T04:20:49;94802.56;;;30.00;49.97
31337;BME280;22846;42.654;23.314;2023-07-16T04:23:15;94806.09;;;30.01;49.81
31337;BME280;22846;42.654;23.314;2023-07-16T04:25:40;94802.09;;;30.02;50.10
31337;BME280;22846;42.654;23.314;2023-07-16T04:28:06;94802.09;;;30.02;49.66
31337;BME280;22846;42.654;23.314;2023-07-16T04:30:31;94800.31;;;29.99;49.64
31337;BME280;22846;42.654;23.314;2023-07-16T04:32:57;94803.63;;;30.03;49.95
31337;BME280;22846;42.654;23.314;2023-07-16T04:35:22;94813.41;;;30.04;49.57
31337;BME280;22846;42.654;23.314;2023-07-16T04:37:47;94797.25;;;29.97;49.54
31337;BME280;22846;42.654;23.314;2023-07-16T04:40:13;94816.97;;;30.04;49.66
31337;BME280;22846;42.654;23.314;2023-07-16T04:42:38;94812.19;;;30.05;49.61
31337;BME280;22846;42.654;23.314;2023-07-16T04:45:04;94803.81;;;29.99;49.93
31337;BME280;22846;42.654;23.314;2023-07-16T04:47:30;94810.97;;;30.06;49.98
31337;BME280;22846;42.654;23.314;2023-07-16T04:49:58;94806.56;;;29.99;49.98
31337;BME280;22846;42.654;23.314;2023-07-16T04:52:23;94816.78;;;30.08;49.93
31337;BME280;22846;42.654;23.314;2023-07-16T04:54:49;94821.06;;;30.09;49.72
31337;BME280;22846;42.654;23.314;2023-07-16T04:57:14;94819.53;;;30.08;49.56
31337;BME280;22846;42.654;23.314;2023-07-16T04:59:39;94821.06;;;30.09;49.89
31337;BME280;22846;42.654;23.314;2023-07-16T05:02:06;94828.09;;;30.10;49.80
31337;BME280;22846;42.654;23.314;2023-07-16T05:04:32;94826.09;;;30.10;49.40
31337;BME280;22846;42.654;23.314;2023-07-16T05:06:58;94830.38;;;30.11;49.52
31337;BME280;22846;42.654;23.314;2023-07-16T05:09:23;94823.63;;;30.12;49.78
31337;BME280;22846;42.654;23.314;2023-07-16T05:11:49;94829.16;;;30.12;49.89
31337;BME280;22846;42.654;23.314;2023-07-16T05:14:14;94827.16;;;30.13;49.47
31337;BME280;22846;42.654;23.314;2023-07-16T05:16:40;94821.94;;;30.15;49.75
31337;BME280;22846;42.654;23.314;2023-07-16T05:19:05;94821.94;;;30.15;49.91
31337;BME280;22846;42.654;23.314;2023-07-16T05:21:30;94822.84;;;30.12;49.55
31337;BME280;22846;42.654;23.314;2023-07-16T05:23:56;94821.44;;;30.16;49.61
31337;BME280;22846;42.654;23.314;2023-07-16T05:26:21;94825.75;;;30.17;49.91
31337;BME280;22846;42.654;23.314;2023-07-16T05:28:46;94826.97;;;30.16;49.88
31337;BME280;22846;42.654;23.314;2023-07-16T05:31:12;94821.00;;;30.18;49.43
31337;BME280;22846;42.654;23.314;2023-07-16T05:33:37;94825.00;;;30.17;49.73
31337;BME280;22846;42.654;23.314;2023-07-16T05:36:03;94827.25;;;30.18;49.56
31337;BME280;22846;42.654;23.314;2023-07-16T05:38:28;94835.06;;;30.20;49.40
31337;BME280;22846;42.654;23.314;2023-07-16T05:41:00;94833.56;;;30.19;49.88
31337;BME280;22846;42.654;23.314;2023-07-16T05:43:25;94832.31;;;30.20;49.80
31337;BME280;22846;42.654;23.314;2023-07-16T05:45:51;94833.84;;;30.21;49.51
31337;BME280;22846;42.654;23.314;2023-07-16T05:48:16;94838.13;;;30.22;49.67
31337;BME280;22846;42.654;23.314;2023-07-16T05:50:44;94842.09;;;30.21;49.88
31337;BME280;22846;42.654;23.314;2023-07-16T05:53:09;94843.63;;;30.22;49.44
31337;BME280;22846;42.654;23.314;2023-07-16T05:55:35;94851.44;;;30.23;49.80
31337;BME280;22846;42.654;23.314;2023-07-16T05:58:00;94844.69;;;30.24;49.85
31337;BME280;22846;42.654;23.314;2023-07-16T06:00:25;94846.69;;;30.24;49.35
31337;BME280;22846;42.654;23.314;2023-07-16T06:02:51;94848.22;;;30.25;49.49
31337;BME280;22846;42.654;23.314;2023-07-16T06:05:16;94839.53;;;30.17;49.45
31337;BME280;22846;42.654;23.314;2023-07-16T06:07:42;94848.97;;;30.25;49.39
31337;BME280;22846;42.654;23.314;2023-07-16T06:10:08;94846.97;;;30.26;49.30
31337;BME280;22846;42.654;23.314;2023-07-16T06:12:33;94850.50;;;30.26;49.23
31337;BME280;22846;42.654;23.314;2023-07-16T06:14:59;94850.00;;;30.28;49.54
31337;BME280;22846;42.654;23.314;2023-07-16T06:17:25;94845.75;;;30.27;49.79
31337;BME280;22846;42.654;23.314;2023-07-16T06:19:50;94842.69;;;30.25;49.42
31337;BME280;22846;42.654;23.314;2023-07-16T06:22:17;94857.06;;;30.29;49.67
31337;BME280;22846;42.654;23.314;2023-07-16T06:24:42;94846.97;;;30.26;49.50
31337;BME280;22846;42.654;23.314;2023-07-16T06:27:08;94842.03;;;30.30;49.86
31337;BME280;22846;42.654;23.314;2023-07-16T06:29:33;94845.09;;;30.32;49.66
31337;BME280;22846;42.654;23.314;2023-07-16T06:31:59;94845.09;;;30.32;49.40
31337;BME280;22846;42.654;23.314;2023-07-16T06:34:25;94847.84;;;30.32;49.29
31337;BME280;22846;42.654;23.314;2023-07-16T06:36:50;94841.84;;;30.33;49.35
31337;BME280;22846;42.654;23.314;2023-07-16T06:39:16;94841.84;;;30.33;49.37
31337;BME280;22846;42.654;23.314;2023-07-16T06:41:41;94833.03;;;30.29;49.40
31337;BME280;22846;42.654;23.314;2023-07-16T06:44:07;94835.91;;;30.35;49.88
31337;BME280;22846;42.654;23.314;2023-07-16T06:46:32;94841.41;;;30.35;49.33
31337;BME280;22846;42.654;23.314;2023-07-16T06:48:57;94838.91;;;30.37;49.76
31337;BME280;22846;42.654;23.314;2023-07-16T06:51:23;94828.25;;;30.30;49.36
31337;BME280;22846;42.654;23.314;2023-07-16T06:53:48;94836.94;;;30.37;49.50
31337;BME280;22846;42.654;23.314;2023-07-16T06:56:14;94834.94;;;30.38;49.13
31337;BME280;22846;42.654;23.314;2023-07-16T06:58:39;94840.44;;;30.38;49.36
31337;BME280;22846;42.654;23.314;2023-07-16T07:01:05;94841.97;;;30.39;49.75
31337;BME280;22846;42.654;23.314;2023-07-16T07:03:30;94842.75;;;30.39;49.24
31337;BME280;22846;42.654;23.314;2023-07-16T07:05:58;94840.75;;;30.40;49.56
31337;BME280;22846;42.654;23.314;2023-07-16T07:08:23;94836.00;;;30.40;49.55
31337;BME280;22846;42.654;23.314;2023-07-16T07:10:49;94833.25;;;30.40;49.83
31337;BME280;22846;42.654;23.314;2023-07-16T07:13:15;94837.50;;;30.41;49.23
31337;BME280;22846;42.654;23.314;2023-07-16T07:15:41;94834.75;;;30.41;49.59
31337;BME280;22846;42.654;23.314;2023-07-16T07:18:07;94836.28;;;30.42;49.35
31337;BME280;22846;42.654;23.314;2023-07-16T07:20:32;94832.28;;;30.43;49.16
31337;BME280;22846;42.654;23.314;2023-07-16T07:22:58;94833.06;;;30.44;49.12
31337;BME280;22846;42.654;23.314;2023-07-16T07:25:27;94833.81;;;30.44;49.22
31337;BME280;22846;42.654;23.314;2023-07-16T07:27:52;94831.84;;;30.45;49.61
31337;BME280;22846;42.654;23.314;2023-07-16T07:30:19;94823.56;;;30.45;49.66
31337;BME280;22846;42.654;23.314;2023-07-16T07:32:45;94832.59;;;30.45;49.61
31337;BME280;22846;42.654;23.314;2023-07-16T07:35:10;94832.59;;;30.45;49.80
31337;BME280;22846;42.654;23.314;2023-07-16T07:37:36;94831.34;;;30.46;49.67
31337;BME280;22846;42.654;23.314;2023-07-16T07:40:01;94830.16;;;30.47;49.61
31337;BME280;22846;42.654;23.314;2023-07-16T07:42:28;94823.81;;;30.47;49.32
31337;BME280;22846;42.654;23.314;2023-07-16T07:44:53;94834.44;;;30.48;49.19
31337;BME280;22846;42.654;23.314;2023-07-16T07:47:19;94836.72;;;30.50;49.23
31337;BME280;22846;42.654;23.314;2023-07-16T07:49:44;94829.66;;;30.49;49.24
31337;BME280;22846;42.654;23.314;2023-07-16T07:52:09;94828.44;;;30.50;49.28
31337;BME280;22846;42.654;23.314;2023-07-16T07:54:35;94825.69;;;30.50;49.70
31337;BME280;22846;42.654;23.314;2023-07-16T07:57:01;94830.44;;;30.49;49.56
31337;BME280;22846;42.654;23.314;2023-07-16T07:59:30;94824.44;;;30.51;49.50
31337;BME280;22846;42.654;23.314;2023-07-16T08:01:57;94824.16;;;30.49;49.52
31337;BME280;22846;42.654;23.314;2023-07-16T08:04:23;94822.94;;;30.50;49.77
31337;BME280;22846;42.654;23.314;2023-07-16T08:06:50;94828.75;;;30.52;49.79
31337;BME280;22846;42.654;23.314;2023-07-16T08:09:15;94830.25;;;30.53;49.65
31337;BME280;22846;42.654;23.314;2023-07-16T08:11:41;94819.22;;;30.53;49.71
31337;BME280;22846;42.654;23.314;2023-07-16T08:14:07;94809.78;;;30.45;49.43
31337;BME280;22846;42.654;23.314;2023-07-16T08:16:32;94826.28;;;30.54;49.39
31337;BME280;22846;42.654;23.314;2023-07-16T08:18:57;94820.75;;;30.54;49.24
31337;BME280;22846;42.654;23.314;2023-07-16T08:21:23;94827.78;;;30.55;49.62
31337;BME280;22846;42.654;23.314;2023-07-16T08:23:49;94826.53;;;30.56;49.63
31337;BME280;22846;42.654;23.314;2023-07-16T08:26:14;94816.75;;;30.55;49.76
31337;BME280;22846;42.654;23.314;2023-07-16T08:28:40;94816.75;;;30.55;49.31
31337;BME280;22846;42.654;23.314;2023-07-16T08:31:05;94823.78;;;30.56;49.67
31337;BME280;22846;42.654;23.314;2023-07-16T08:33:30;94825.31;;;30.57;49.18
31337;BME280;22846;42.654;23.314;2023-07-16T08:35:56;94821.03;;;30.56;49.55
31337;BME280;22846;42.654;23.314;2023-07-16T08:38:21;94824.56;;;30.56;49.27
31337;BME280;22846;42.654;23.314;2023-07-16T08:40:47;94823.03;;;30.55;49.36
31337;BME280;22846;42.654;23.314;2023-07-16T08:43:14;94828.84;;;30.57;49.63
31337;BME280;22846;42.654;23.314;2023-07-16T08:45:41;94822.56;;;30.57;49.45
31337;BME280;22846;42.654;23.314;2023-07-16T08:48:10;94814.47;;;30.53;49.42
31337;BME280;22846;42.654;23.314;2023-07-16T08:50:36;94822.06;;;30.58;49.30
31337;BME280;22846;42.654;23.314;2023-07-16T08:53:05;94813.03;;;30.58;49.40
31337;BME280;22846;42.654;23.314;2023-07-16T08:55:30;94796.88;;;30.51;49.70
31337;BME280;22846;42.654;23.314;2023-07-16T08:57:57;94805.19;;;30.42;46.97
31337;BME280;22846;42.654;23.314;2023-07-16T09:00:24;94823.63;;;30.36;44.83
31337;BME280;22846;42.654;23.314;2023-07-16T09:02:52;94820.53;;;30.19;42.99
31337;BME280;22846;42.654;23.314;2023-07-16T09:05:20;94819.28;;;29.97;41.41
31337;BME280;22846;42.654;23.314;2023-07-16T09:07:46;94817.53;;;29.76;40.60
31337;BME280;22846;42.654;23.314;2023-07-16T09:10:11;94814.59;;;29.56;39.67
31337;BME280;22846;42.654;23.314;2023-07-16T09:12:42;94813.28;;;29.34;38.92
31337;BME280;22846;42.654;23.314;2023-07-16T09:15:08;94808.59;;;29.16;38.81
31337;BME280;22846;42.654;23.314;2023-07-16T09:17:34;94813.22;;;29.02;38.23
31337;BME280;22846;42.654;23.314;2023-07-16T09:20:02;94810.06;;;28.85;37.82
31337;BME280;22846;42.654;23.314;2023-07-16T09:22:29;94806.69;;;28.72;37.48
31337;BME280;22846;42.654;23.314;2023-07-16T09:24:54;94806.53;;;28.58;37.55
31337;BME280;22846;42.654;23.314;2023-07-16T09:27:27;94809.47;;;28.45;37.23
31337;BME280;22846;42.654;23.314;2023-07-16T09:29:53;94805.19;;;28.35;36.64
31337;BME280;22846;42.654;23.314;2023-07-16T09:32:18;94801.84;;;28.22;36.54
31337;BME280;22846;42.654;23.314;2023-07-16T09:34:44;94796.00;;;28.12;36.49
31337;BME280;22846;42.654;23.314;2023-07-16T09:37:10;94798.41;;;28.01;36.53
31337;BME280;22846;42.654;23.314;2023-07-16T09:39:36;94797.97;;;27.93;36.14
31337;BME280;22846;42.654;23.314;2023-07-16T09:42:02;94793.22;;;27.85;36.10
31337;BME280;22846;42.654;23.314;2023-07-16T09:44:29;94797.47;;;27.77;35.97
31337;BME280;22846;42.654;23.314;2023-07-16T09:46:54;94800.50;;;27.70;35.79
31337;BME280;22846;42.654;23.314;2023-07-16T09:49:19;94798.06;;;27.63;35.83
31337;BME280;22846;42.654;23.314;2023-07-16T09:51:45;94799.81;;;27.57;35.49
31337;BME280;22846;42.654;23.314;2023-07-16T09:54:13;94796.94;;;27.51;35.82
31337;BME280;22846;42.654;23.314;2023-07-16T09:56:43;94785.16;;;27.42;36.23
31337;BME280;22846;42.654;23.314;2023-07-16T09:59:13;94793.38;;;27.42;37.18
31337;BME280;22846;42.654;23.314;2023-07-16T10:01:39;94791.09;;;27.40;38.22
31337;BME280;22846;42.654;23.314;2023-07-16T10:04:15;94788.50;;;27.37;38.52
31337;BME280;22846;42.654;23.314;2023-07-16T10:12:16;94777.06;;;27.38;39.19
31337;BME280;22846;42.654;23.314;2023-07-16T10:14:47;94779.34;;;27.40;39.15
31337;BME280;22846;42.654;23.314;2023-07-16T10:17:49;94777.81;;;27.39;39.39
31337;BME280;22846;42.654;23.314;2023-07-16T10:20:14;94773.09;;;27.39;39.62
31337;BME280;22846;42.654;23.314;2023-07-16T10:22:42;94773.09;;;27.39;39.50
31337;BME280;22846;42.654;23.314;2023-07-16T10:25:10;94774.78;;;27.37;39.51
31337;BME280;22846;42.654;23.314;2023-07-16T10:27:36;94765.75;;;27.36;39.55
31337;BME280;22846;42.654;23.314;2023-07-16T10:30:03;94770.94;;;27.34;39.80
31337;BME280;22846;42.654;23.314;2023-07-16T10:32:31;94737.19;;;27.16;39.30
31337;BME280;22846;42.654;23.314;2023-07-16T10:34:57;94762.41;;;27.33;40.15
31337;BME280;22846;42.654;23.314;2023-07-16T10:37:24;94760.25;;;27.28;40.79
31337;BME280;22846;42.654;23.314;2023-07-16T10:39:52;94767.56;;;27.31;41.49
31337;BME280;22846;42.654;23.314;2023-07-16T10:42:19;94758.44;;;27.33;42.15
31337;BME280;22846;42.654;23.314;2023-07-16T10:44:48;94767.91;;;27.33;42.44
31337;BME280;22846;42.654;23.314;2023-07-16T10:47:23;94759.38;;;27.39;42.71
31337;BME280;22846;42.654;23.314;2023-07-16T10:49:50;94761.22;;;27.42;42.49
31337;BME280;22846;42.654;23.314;2023-07-16T10:52:17;94758.31;;;27.46;42.61
31337;BME280;22846;42.654;23.314;2023-07-16T10:54:43;94757.88;;;27.47;43.31
31337;BME280;22846;42.654;23.314;2023-07-16T10:57:09;94747.78;;;27.44;42.93
31337;BME280;22846;42.654;23.314;2023-07-16T10:59:39;94751.91;;;27.49;42.94
31337;BME280;22846;42.654;23.314;2023-07-16T11:02:08;94734.66;;;27.39;44.02
31337;BME280;22846;42.654;23.314;2023-07-16T11:04:36;94753.59;;;27.46;43.76
31337;BME280;22846;42.654;23.314;2023-07-16T11:07:08;94725.19;;;27.32;42.95
31337;BME280;22846;42.654;23.314;2023-07-16T11:09:40;94736.06;;;27.44;43.84
31337;BME280;22846;42.654;23.314;2023-07-16T11:12:11;94736.66;;;27.48;43.73
31337;BME280;22846;42.654;23.314;2023-07-16T11:14:37;94727.19;;;27.40;43.84
31337;BME280;22846;42.654;23.314;2023-07-16T11:17:05;94727.34;;;27.36;43.64
31337;BME280;22846;42.654;23.314;2023-07-16T11:19:31;94741.41;;;27.47;43.54
31337;BME280;22846;42.654;23.314;2023-07-16T11:21:57;94730.09;;;27.45;43.17
31337;BME280;22846;42.654;23.314;2023-07-16T11:24:23;94736.66;;;27.48;43.12
31337;BME280;22846;42.654;23.314;2023-07-16T11:26:54;94714.25;;;27.40;42.32
31337;BME280;22846;42.654;23.314;2023-07-16T11:29:22;94730.41;;;27.47;43.14
31337;BME280;22846;42.654;23.314;2023-07-16T11:31:51;94732.09;;;27.45;43.02
31337;BME280;22846;42.654;23.314;2023-07-16T11:34:19;94726.91;;;27.47;42.19
31337;BME280;22846;42.654;23.314;2023-07-16T11:36:45;94728.41;;;27.48;43.03
31337;BME280;22846;42.654;23.314;2023-07-16T11:39:11;94726.28;;;27.43;42.28
31337;BME280;22846;42.654;23.314;2023-07-16T11:41:37;94725.66;;;27.48;42.80
31337;BME280;22846;42.654;23.314;2023-07-16T11:44:03;94722.94;;;27.48;42.37
31337;BME280;22846;42.654;23.314;2023-07-16T11:46:33;94708.91;;;27.46;43.28
31337;BME280;22846;42.654;23.314;2023-07-16T11:48:59;94712.88;;;27.45;43.71
31337;BME280;22846;42.654;23.314;2023-07-16T11:51:25;94720.19;;;27.48;44.33
31337;BME280;22846;42.654;23.314;2023-07-16T11:53:50;94726.78;;;27.50;44.30
31337;BME280;22846;42.654;23.314;2023-07-16T11:56:16;94729.03;;;27.52;44.35
31337;BME280;22846;42.654;23.314;2023-07-16T11:58:41;94711.81;;;27.42;43.35
31337;BME280;22846;42.654;23.314;2023-07-16T12:01:07;94717.91;;;27.46;43.53
31337;BME280;22846;42.654;23.314;2023-07-16T12:03:32;94714.84;;;27.44;43.12
31337;BME280;22846;42.654;23.314;2023-07-16T12:05:58;94711.03;;;27.42;43.60
31337;BME280;22846;42.654;23.314;2023-07-16T12:08:23;94720.47;;;27.41;44.25
31337;BME280;22846;42.654;23.314;2023-07-16T12:10:49;94698.97;;;27.31;43.89
31337;BME280;22846;42.654;23.314;2023-07-16T12:13:14;94708.44;;;27.38;44.55
31337;BME280;22846;42.654;23.314;2023-07-16T12:15:39;94708.44;;;27.38;43.86
31337;BME280;22846;42.654;23.314;2023-07-16T12:18:05;94707.22;;;27.39;44.07
31337;BME280;22846;42.654;23.314;2023-07-16T12:20:30;94715.00;;;27.41;43.25
31337;BME280;22846;42.654;23.314;2023-07-16T12:22:56;94708.59;;;27.44;43.35
31337;BME280;22846;42.654;23.314;2023-07-16T12:25:21;94708.13;;;27.45;44.42
31337;BME280;22846;42.654;23.314;2023-07-16T12:27:46;94696.09;;;27.43;44.67
31337;BME280;22846;42.654;23.314;2023-07-16T12:30:12;94706.03;;;27.49;44.23
31337;BME280;22846;42.654;23.314;2023-07-16T12:32:37;94700.38;;;27.53;43.95
31337;BME280;22846;42.654;23.314;2023-07-16T12:35:03;94701.44;;;27.55;43.35
31337;BME280;22846;42.654;23.314;2023-07-16T12:37:29;94697.94;;;27.55;42.45
31337;BME280;22846;42.654;23.314;2023-07-16T12:39:55;94683.13;;;27.43;42.38
31337;BME280;22846;42.654;23.314;2023-07-16T12:42:20;94697.78;;;27.49;41.33
31337;BME280;22846;42.654;23.314;2023-07-16T12:44:46;94695.94;;;27.46;40.79
31337;BME280;22846;42.654;23.314;2023-07-16T12:47:11;94695.03;;;27.40;40.70
31337;BME280;22846;42.654;23.314;2023-07-16T12:49:37;94668.03;;;27.30;40.34
31337;BME280;22846;42.654;23.314;2023-07-16T12:52:02;94678.53;;;27.32;40.34
31337;BME280;22846;42.654;23.314;2023-07-16T12:54:28;94666.31;;;27.24;40.13
31337;BME280;22846;42.654;23.314;2023-07-16T12:56:53;94676.09;;;27.25;40.07
31337;BME280;22846;42.654;23.314;2023-07-16T12:59:18;94651.31;;;26.98;40.27